Hereheretue, French Polynesia
Current Conditions -  °F | °C
As of 6:30 AM on Friday 28 Nov 2014 (Local Time) from NTAA Reporting Station
Broken Clouds Broken Clouds  
Wind Chill: 77°   Ceiling: 4300
Heat Index: 79°   Visibility: 6mi
Dew Point: 70°   Wind: 3mph
Humidity: 78%   Direction: 80°E
Pressure: 29.74"   Gusts: NA
Location:  19.9°S, 144.97°W
Report Text: NTAA 281530Z AUTO 08003KT 9999 BKN043/// 25/21 Q1007
Loading
Personal Weather Stations






























Interactive Weather Map New forecast layout! Learn more

10-Day Weather Forecast

Advertisements
Track Severe Weather on mobile